Time;durP1;ratioP1;P1;durP2;ratioP2;P2;SDS_P1;SDS_P2;PMS_P1;PMS_P2;Temp;Humidity;BMP_temperature;BMP_pressure;BME280_temperature;BME280_humidity;BME280_pressure;Samples;Min_cycle;Max_cycle;Signal;HPM_P1;HPM_P2
2021/10/21 00:00:29;;;;;;;47.90;27.70;;;;;;;;;;5076189;28;20017;-46
2021/10/21 00:02:55;;;;;;;49.30;29.30;;;;;;;;;;5076049;28;20031;-47
2021/10/21 00:05:21;;;;;;;41.65;27.67;;;;;;;;;;5075914;28;20025;-46
2021/10/21 00:07:47;;;;;;;46.40;28.17;;;;;;;;;;5075965;28;20219;-46
2021/10/21 00:10:14;;;;;;;43.17;28.58;;;;;;;;;;5075900;28;20500;-47
2021/10/21 00:12:45;;;;;;;44.10;26.90;;;;;;;;;;5075778;28;20036;-45
2021/10/21 00:15:12;;;;;;;43.08;27.30;;;;;;;;;;5075880;28;20502;-46
2021/10/21 00:17:38;;;;;;;42.60;25.98;;;;;;;;;;5075829;28;20032;-47
2021/10/21 00:20:06;;;;;;;55.53;30.63;;;;;;;;;;5075653;28;20027;-47
2021/10/21 00:22:32;;;;;;;52.10;28.50;;;;;;;;;;5075765;28;20057;-47
2021/10/21 00:24:58;;;;;;;67.95;32.40;;;;;;;;;;5074222;28;20553;-46
2021/10/21 00:27:24;;;;;;;48.00;28.23;;;;;;;;;;5074706;28;20025;-46
2021/10/21 00:29:51;;;;;;;53.53;31.98;;;;;;;;;;5075600;28;20020;-47
2021/10/21 00:32:17;;;;;;;48.35;27.70;;;;;;;;;;5075643;28;20388;-47
2021/10/21 00:34:43;;;;;;;55.10;31.10;;;;;;;;;;5075525;28;20023;-47
2021/10/21 00:37:09;;;;;;;82.35;44.22;;;;;;;;;;5075470;28;20029;-47
2021/10/21 00:39:35;;;;;;;43.88;28.42;;;;;;;;;;5075429;28;20017;-47
2021/10/21 00:42:01;;;;;;;41.33;24.70;;;;;;;;;;5075305;28;20033;-46
2021/10/21 00:44:27;;;;;;;48.28;28.95;;;;;;;;;;5075407;28;20059;-47
2021/10/21 00:46:54;;;;;;;43.65;26.40;;;;;;;;;;5075390;28;20376;-47
2021/10/21 00:49:20;;;;;;;35.28;23.40;;;;;;;;;;5075349;28;20050;-47
2021/10/21 00:51:47;;;;;;;41.35;26.17;;;;;;;;;;5075056;28;20028;-47
2021/10/21 00:54:13;;;;;;;47.10;26.80;;;;;;;;;;5075039;28;20249;-48
2021/10/21 00:56:40;;;;;;;47.38;29.20;;;;;;;;;;5075119;28;20104;-44
2021/10/21 00:59:08;;;;;;;54.83;33.90;;;;;;;;;;5074965;28;20103;-47
2021/10/21 01:01:36;;;;;;;45.22;27.65;;;;;;;;;;5075013;28;20028;-47
2021/10/21 01:04:04;;;;;;;38.97;24.65;;;;;;;;;;5074908;28;20057;-47
2021/10/21 01:06:32;;;;;;;37.03;24.50;;;;;;;;;;5074736;28;20047;-47
2021/10/21 01:08:59;;;;;;;43.33;27.00;;;;;;;;;;5074828;28;20070;-47
2021/10/21 01:11:25;;;;;;;45.85;28.75;;;;;;;;;;5074619;28;20021;-47
2021/10/21 01:13:52;;;;;;;35.72;23.42;;;;;;;;;;5074650;28;20032;-47
2021/10/21 01:16:18;;;;;;;59.40;34.50;;;;;;;;;;5074628;28;20040;-47
2021/10/21 01:18:44;;;;;;;38.83;25.40;;;;;;;;;;5074694;28;20028;-46
2021/10/21 01:21:13;;;;;;;74.80;42.75;;;;;;;;;;5074454;28;20060;-46
2021/10/21 01:23:42;;;;;;;39.92;23.48;;;;;;;;;;5074470;28;20074;-47
2021/10/21 01:26:09;;;;;;;34.45;21.90;;;;;;;;;;5074342;28;20047;-47
2021/10/21 01:28:35;;;;;;;45.38;28.75;;;;;;;;;;5074384;28;20032;-47
2021/10/21 01:31:01;;;;;;;45.58;26.67;;;;;;;;;;5074391;28;20086;-48
2021/10/21 01:33:27;;;;;;;41.75;26.95;;;;;;;;;;5074186;28;20082;-46
2021/10/21 01:35:53;;;;;;;46.67;25.83;;;;;;;;;;5074291;28;20426;-47
2021/10/21 01:38:19;;;;;;;34.75;21.73;;;;;;;;;;5074179;28;20021;-46
2021/10/21 01:40:46;;;;;;;50.63;32.00;;;;;;;;;;5068416;28;20044;-47
2021/10/21 01:43:13;;;;;;;43.75;25.90;;;;;;;;;;5054065;28;20033;-47
2021/10/21 01:45:39;;;;;;;37.92;24.05;;;;;;;;;;5054161;28;20025;-46
2021/10/21 01:48:06;;;;;;;42.10;24.98;;;;;;;;;;5053999;28;20495;-46
2021/10/21 01:50:32;;;;;;;42.97;25.38;;;;;;;;;;5054411;28;20021;-46
2021/10/21 01:52:58;;;;;;;40.08;22.88;;;;;;;;;;5053932;28;20120;-47
2021/10/21 01:55:25;;;;;;;36.63;22.45;;;;;;;;;;5053688;28;20025;-47
2021/10/21 01:57:51;;;;;;;42.45;27.23;;;;;;;;;;5053949;28;20033;-46
2021/10/21 02:00:18;;;;;;;38.15;24.92;;;;;;;;;;5054046;28;20025;-46
2021/10/21 02:02:45;;;;;;;32.13;22.27;;;;;;;;;;5053912;28;20024;-47
2021/10/21 02:05:15;;;;;;;39.08;24.30;;;;;;;;;;5053614;28;20028;-47
2021/10/21 02:07:43;;;;;;;40.05;23.92;;;;;;;;;;5053681;28;20029;-47
2021/10/21 02:10:11;;;;;;;33.13;22.17;;;;;;;;;;5053621;28;20032;-46
2021/10/21 02:12:37;;;;;;;39.50;23.75;;;;;;;;;;5053518;28;20480;-46
2021/10/21 02:15:03;;;;;;;40.10;22.48;;;;;;;;;;5053638;28;20056;-46
2021/10/21 02:17:32;;;;;;;41.20;24.83;;;;;;;;;;5053453;28;20055;-47
2021/10/21 02:19:58;;;;;;;41.97;23.90;;;;;;;;;;5053378;28;20504;-46
2021/10/21 02:22:24;;;;;;;38.70;22.42;;;;;;;;;;5053149;28;20027;-46
2021/10/21 02:24:50;;;;;;;33.95;22.02;;;;;;;;;;5053006;28;20095;-46
2021/10/21 02:27:16;;;;;;;36.15;21.30;;;;;;;;;;5053228;28;20029;-46
2021/10/21 02:29:42;;;;;;;36.45;22.63;;;;;;;;;;5053351;28;20066;-47
2021/10/21 02:32:10;;;;;;;45.20;26.00;;;;;;;;;;5053373;28;20037;-46
2021/10/21 02:34:37;;;;;;;35.45;21.67;;;;;;;;;;5053455;28;20052;-47
2021/10/21 02:37:03;;;;;;;35.65;21.75;;;;;;;;;;5053386;28;20025;-47
2021/10/21 02:39:29;;;;;;;45.58;28.10;;;;;;;;;;5053306;28;20534;-47
2021/10/21 02:41:57;;;;;;;39.15;23.33;;;;;;;;;;5053227;28;20079;-47
2021/10/21 02:44:23;;;;;;;35.42;22.05;;;;;;;;;;5053532;28;20035;-46
2021/10/21 02:46:50;;;;;;;36.65;23.17;;;;;;;;;;5053365;28;20025;-46
2021/10/21 02:49:16;;;;;;;35.85;23.42;;;;;;;;;;5053176;28;20389;-46
2021/10/21 02:51:42;;;;;;;36.75;23.52;;;;;;;;;;5052759;28;20021;-47
2021/10/21 02:54:08;;;;;;;36.35;21.85;;;;;;;;;;5052982;28;20025;-47
2021/10/21 02:56:34;;;;;;;39.67;24.48;;;;;;;;;;5053419;28;20025;-47
2021/10/21 02:59:00;;;;;;;33.97;22.38;;;;;;;;;;5053158;28;20028;-46
2021/10/21 03:01:26;;;;;;;38.05;22.30;;;;;;;;;;5053125;28;20017;-46
2021/10/21 03:03:53;;;;;;;38.55;23.10;;;;;;;;;;5053000;28;20029;-46
2021/10/21 03:06:21;;;;;;;50.45;27.75;;;;;;;;;;5053074;28;20377;-47
2021/10/21 03:08:49;;;;;;;39.97;25.33;;;;;;;;;;5052958;28;20017;-46
2021/10/21 03:11:15;;;;;;;40.35;23.75;;;;;;;;;;5053203;28;20109;-46
2021/10/21 03:13:41;;;;;;;39.15;22.48;;;;;;;;;;5053061;28;20044;-46
2021/10/21 03:16:07;;;;;;;32.55;20.52;;;;;;;;;;5053117;28;20078;-47
2021/10/21 03:18:33;;;;;;;36.05;22.52;;;;;;;;;;5053052;28;20029;-47
2021/10/21 03:20:59;;;;;;;32.08;19.95;;;;;;;;;;5052887;28;20453;-46
2021/10/21 03:23:26;;;;;;;33.22;19.40;;;;;;;;;;5053011;28;20071;-46
2021/10/21 03:25:53;;;;;;;33.83;20.67;;;;;;;;;;5052401;28;20056;-46
2021/10/21 03:28:19;;;;;;;32.95;19.55;;;;;;;;;;5052800;28;20079;-46
2021/10/21 03:30:45;;;;;;;36.38;21.55;;;;;;;;;;5053005;28;20025;-46
2021/10/21 03:33:16;;;;;;;31.85;19.90;;;;;;;;;;5052896;28;20033;-47
2021/10/21 03:35:42;;;;;;;36.00;19.40;;;;;;;;;;5052715;28;20013;-46
2021/10/21 03:38:08;;;;;;;31.70;18.95;;;;;;;;;;5052617;28;20033;-47
2021/10/21 03:40:35;;;;;;;28.52;18.27;;;;;;;;;;5052653;28;20029;-47
2021/10/21 03:43:01;;;;;;;30.08;17.48;;;;;;;;;;5052811;28;20031;-47
2021/10/21 03:45:27;;;;;;;29.67;17.50;;;;;;;;;;5052951;28;20473;-47
2021/10/21 03:47:53;;;;;;;32.42;17.90;;;;;;;;;;5052770;28;20029;-47
2021/10/21 03:50:19;;;;;;;31.90;18.52;;;;;;;;;;5052652;28;20021;-46
2021/10/21 03:52:45;;;;;;;32.10;19.38;;;;;;;;;;5052543;28;20029;-46
2021/10/21 03:55:11;;;;;;;31.45;18.33;;;;;;;;;;5052428;28;20029;-47
2021/10/21 03:57:37;;;;;;;33.17;19.48;;;;;;;;;;5052670;28;20071;-47
2021/10/21 04:00:05;;;;;;;31.27;19.17;;;;;;;;;;5052809;28;20041;-46
2021/10/21 04:02:31;;;;;;;32.80;19.80;;;;;;;;;;5054039;28;20097;-46
2021/10/21 04:04:57;;;;;;;31.63;19.65;;;;;;;;;;5056264;28;20032;-46
2021/10/21 04:07:23;;;;;;;36.78;22.40;;;;;;;;;;5056096;28;20358;-46
2021/10/21 04:09:49;;;;;;;33.72;22.20;;;;;;;;;;5056019;28;20025;-47
2021/10/21 04:12:15;;;;;;;39.75;23.92;;;;;;;;;;5056152;28;20029;-46
2021/10/21 04:14:41;;;;;;;38.55;22.65;;;;;;;;;;5056084;28;20029;-46
2021/10/21 04:17:07;;;;;;;39.35;24.13;;;;;;;;;;5056045;28;20028;-47
2021/10/21 04:19:33;;;;;;;39.97;23.92;;;;;;;;;;5056038;28;20028;-46
2021/10/21 04:22:01;;;;;;;40.42;25.42;;;;;;;;;;5055767;28;20017;-47
2021/10/21 04:24:28;;;;;;;43.63;26.13;;;;;;;;;;5055442;28;20052;-47
2021/10/21 04:26:54;;;;;;;40.50;25.90;;;;;;;;;;5056054;28;20029;-46
2021/10/21 04:29:20;;;;;;;41.13;25.20;;;;;;;;;;5055697;28;20025;-46
2021/10/21 04:31:46;;;;;;;46.45;27.58;;;;;;;;;;5055783;28;20025;-46
2021/10/21 04:34:15;;;;;;;42.80;28.35;;;;;;;;;;5055798;28;20036;-45
2021/10/21 04:36:41;;;;;;;46.88;28.85;;;;;;;;;;5055506;28;20519;-44
2021/10/21 04:39:07;;;;;;;49.20;30.02;;;;;;;;;;5055318;28;20452;-46
2021/10/21 04:41:34;;;;;;;49.00;29.40;;;;;;;;;;5055726;28;20053;-46
2021/10/21 04:44:00;;;;;;;45.08;28.85;;;;;;;;;;5055544;28;20477;-46
2021/10/21 04:46:26;;;;;;;49.13;28.85;;;;;;;;;;5055353;28;20021;-46
2021/10/21 04:48:52;;;;;;;49.75;29.65;;;;;;;;;;5055288;28;20056;-46
2021/10/21 04:51:18;;;;;;;58.40;33.47;;;;;;;;;;5055132;28;20029;-45
2021/10/21 04:53:44;;;;;;;49.35;30.15;;;;;;;;;;5055076;28;20033;-46
2021/10/21 04:56:11;;;;;;;51.08;30.00;;;;;;;;;;5055035;28;20030;-46
2021/10/21 04:58:38;;;;;;;69.13;40.88;;;;;;;;;;5055087;28;20029;-45
2021/10/21 05:01:04;;;;;;;53.00;30.60;;;;;;;;;;5054601;28;20018;-47
2021/10/21 05:03:31;;;;;;;61.55;36.97;;;;;;;;;;5054882;28;20060;-45
2021/10/21 05:05:59;;;;;;;48.40;32.25;;;;;;;;;;5053825;28;20032;-45
2021/10/21 05:08:25;;;;;;;54.80;33.83;;;;;;;;;;5054126;28;20033;-45
2021/10/21 05:10:51;;;;;;;51.25;32.47;;;;;;;;;;5054886;28;20112;-46
2021/10/21 05:13:20;;;;;;;54.33;31.67;;;;;;;;;;5054478;28;20048;-46
2021/10/21 05:15:46;;;;;;;50.22;32.78;;;;;;;;;;5054951;28;20021;-45
2021/10/21 05:18:15;;;;;;;53.00;34.03;;;;;;;;;;5054612;28;20057;-47
2021/10/21 05:20:41;;;;;;;53.92;31.52;;;;;;;;;;5054646;28;20112;-48
2021/10/21 05:23:08;;;;;;;51.33;29.25;;;;;;;;;;5054499;28;20025;-46
2021/10/21 05:25:36;;;;;;;46.60;29.20;;;;;;;;;;5054189;28;20543;-47
2021/10/21 05:28:03;;;;;;;49.70;30.85;;;;;;;;;;5054665;28;20048;-47
2021/10/21 05:30:29;;;;;;;56.05;33.08;;;;;;;;;;5054325;28;20535;-48
2021/10/21 05:32:55;;;;;;;66.40;36.53;;;;;;;;;;5054259;28;20051;-47
2021/10/21 05:35:21;;;;;;;60.90;35.28;;;;;;;;;;5054355;28;20036;-46
2021/10/21 05:37:47;;;;;;;68.90;35.90;;;;;;;;;;5054212;28;20021;-47
2021/10/21 05:40:14;;;;;;;59.90;32.78;;;;;;;;;;5054188;28;20025;-46
2021/10/21 05:42:40;;;;;;;57.92;35.20;;;;;;;;;;5054188;28;20086;-52
2021/10/21 05:45:06;;;;;;;54.95;33.78;;;;;;;;;;5054137;28;20071;-52
2021/10/21 05:47:38;;;;;;;61.33;34.80;;;;;;;;;;5054192;28;20112;-49
2021/10/21 05:50:04;;;;;;;61.75;32.92;;;;;;;;;;5054095;28;20100;-50
2021/10/21 05:52:30;;;;;;;64.43;36.33;;;;;;;;;;5053905;28;20401;-47
2021/10/21 05:54:56;;;;;;;49.22;31.83;;;;;;;;;;5053871;28;20025;-47
2021/10/21 05:57:22;;;;;;;57.25;31.75;;;;;;;;;;5053993;28;20436;-47
2021/10/21 05:59:53;;;;;;;46.00;30.40;;;;;;;;;;5053997;28;20099;-47
2021/10/21 06:02:19;;;;;;;47.28;30.58;;;;;;;;;;5052656;28;20084;-47
2021/10/21 06:04:48;;;;;;;48.38;29.40;;;;;;;;;;5053733;28;20025;-47
2021/10/21 06:07:14;;;;;;;50.38;31.92;;;;;;;;;;5053778;28;20138;-47
2021/10/21 06:09:41;;;;;;;59.00;35.40;;;;;;;;;;5053717;28;20025;-47
2021/10/21 06:12:07;;;;;;;63.67;37.72;;;;;;;;;;5053663;28;20025;-47
2021/10/21 06:14:33;;;;;;;54.00;35.33;;;;;;;;;;5053534;28;20485;-47
2021/10/21 06:17:00;;;;;;;57.03;35.22;;;;;;;;;;5053570;28;20472;-48
2021/10/21 06:19:26;;;;;;;47.65;30.80;;;;;;;;;;5053743;28;20025;-47
2021/10/21 06:21:58;;;;;;;41.97;28.25;;;;;;;;;;5053502;28;20373;-47
2021/10/21 06:24:27;;;;;;;41.38;26.35;;;;;;;;;;5052667;28;20048;-47
2021/10/21 06:26:53;;;;;;;36.58;23.90;;;;;;;;;;5053403;28;20150;-48
2021/10/21 06:29:19;;;;;;;49.88;22.08;;;;;;;;;;5053390;28;20017;-47
2021/10/21 06:31:52;;;;;;;30.17;21.38;;;;;;;;;;5053859;28;20060;-47
2021/10/21 06:34:18;;;;;;;34.13;23.88;;;;;;;;;;5053419;28;20231;-46
2021/10/21 06:36:44;;;;;;;30.98;23.05;;;;;;;;;;5053432;28;20497;-46
2021/10/21 06:39:10;;;;;;;33.95;23.30;;;;;;;;;;5053161;28;20032;-47
2021/10/21 06:41:38;;;;;;;38.17;24.63;;;;;;;;;;5053540;28;20052;-47
2021/10/21 06:44:05;;;;;;;31.10;23.02;;;;;;;;;;5053420;28;20108;-47
2021/10/21 06:46:31;;;;;;;37.63;25.00;;;;;;;;;;5053370;28;20029;-47
2021/10/21 06:49:00;;;;;;;33.65;23.75;;;;;;;;;;5053235;28;20108;-47
2021/10/21 06:51:27;;;;;;;33.80;23.17;;;;;;;;;;5053248;28;20497;-47
2021/10/21 06:53:53;;;;;;;40.13;26.52;;;;;;;;;;5052913;28;20546;-47
2021/10/21 06:56:19;;;;;;;39.90;25.80;;;;;;;;;;5053243;28;20040;-47
2021/10/21 06:58:45;;;;;;;33.97;24.33;;;;;;;;;;5053117;28;20082;-47
2021/10/21 07:01:15;;;;;;;32.80;22.30;;;;;;;;;;5052990;28;20025;-47
2021/10/21 07:03:41;;;;;;;36.03;24.23;;;;;;;;;;5051479;28;20393;-48
2021/10/21 07:06:07;;;;;;;30.10;23.25;;;;;;;;;;5053030;28;20013;-48
2021/10/21 07:08:33;;;;;;;30.15;21.77;;;;;;;;;;5052903;28;20025;-48
2021/10/21 07:11:01;;;;;;;34.70;20.88;;;;;;;;;;5053221;28;20021;-49
2021/10/21 07:13:27;;;;;;;27.13;19.10;;;;;;;;;;5052953;28;20029;-48
2021/10/21 07:15:54;;;;;;;23.33;18.02;;;;;;;;;;5052816;28;20017;-49
2021/10/21 07:18:20;;;;;;;25.35;17.92;;;;;;;;;;5053154;28;20029;-49
2021/10/21 07:20:46;;;;;;;23.70;17.55;;;;;;;;;;5052919;28;20487;-49
2021/10/21 07:23:12;;;;;;;36.33;17.50;;;;;;;;;;5052790;28;20141;-48
2021/10/21 07:25:38;;;;;;;25.88;17.80;;;;;;;;;;5052626;28;20098;-47
2021/10/21 07:28:04;;;;;;;23.60;16.83;;;;;;;;;;5052944;28;20404;-43
2021/10/21 07:30:31;;;;;;;21.13;15.82;;;;;;;;;;5052895;28;20025;-43
2021/10/21 07:32:58;;;;;;;19.73;15.88;;;;;;;;;;5052818;28;20025;-43
2021/10/21 07:35:25;;;;;;;26.92;15.23;;;;;;;;;;5052811;28;20387;-42
2021/10/21 07:37:51;;;;;;;34.55;16.02;;;;;;;;;;5056064;28;20027;-42
2021/10/21 07:40:17;;;;;;;21.85;14.32;;;;;;;;;;5056662;28;20465;-42
2021/10/21 07:42:43;;;;;;;21.85;16.98;;;;;;;;;;5056695;28;20457;-43
2021/10/21 07:45:10;;;;;;;20.50;12.90;;;;;;;;;;5056467;28;20024;-40
2021/10/21 07:47:37;;;;;;;21.38;15.43;;;;;;;;;;5056325;28;20049;-44
2021/10/21 07:50:04;;;;;;;40.45;22.67;;;;;;;;;;5056310;28;20021;-42
2021/10/21 07:52:32;;;;;;;27.77;17.33;;;;;;;;;;5056076;28;20021;-44
2021/10/21 07:54:58;;;;;;;76.88;52.53;;;;;;;;;;5056203;28;20033;-42
2021/10/21 07:57:26;;;;;;;35.72;19.90;;;;;;;;;;5056064;28;20025;-41
2021/10/21 07:59:52;;;;;;;16.00;9.15;;;;;;;;;;5056286;28;20104;-40
2021/10/21 08:02:19;;;;;;;15.57;10.13;;;;;;;;;;5056151;28;20021;-40
2021/10/21 08:04:46;;;;;;;14.10;9.43;;;;;;;;;;5056058;28;20021;-39
2021/10/21 08:07:12;;;;;;;19.52;10.05;;;;;;;;;;5055915;28;20056;-42
2021/10/21 08:09:38;;;;;;;15.93;9.73;;;;;;;;;;5056006;28;20032;-39
2021/10/21 08:12:05;;;;;;;17.80;9.40;;;;;;;;;;5056075;28;20025;-40
2021/10/21 08:14:31;;;;;;;17.55;9.85;;;;;;;;;;5054722;28;20033;-40
2021/10/21 08:16:58;;;;;;;18.20;10.45;;;;;;;;;;5055967;28;20021;-40
2021/10/21 08:19:25;;;;;;;14.27;10.55;;;;;;;;;;5055764;28;20025;-39
2021/10/21 08:21:51;;;;;;;25.95;11.23;;;;;;;;;;5055754;28;20020;-41
2021/10/21 08:24:19;;;;;;;29.65;12.13;;;;;;;;;;5055466;28;20094;-40
2021/10/21 08:26:55;;;;;;;29.35;11.60;;;;;;;;;;5055835;28;20033;-40
2021/10/21 08:29:22;;;;;;;22.20;11.23;;;;;;;;;;5055731;28;20025;-42
2021/10/21 08:31:48;;;;;;;38.05;10.93;;;;;;;;;;5055592;28;20111;-40
2021/10/21 08:34:15;;;;;;;24.30;10.73;;;;;;;;;;5055412;28;20036;-41
2021/10/21 08:36:41;;;;;;;30.73;10.48;;;;;;;;;;5055394;28;20020;-41
2021/10/21 08:39:07;;;;;;;22.55;10.13;;;;;;;;;;5055557;28;20052;-40
2021/10/21 08:41:33;;;;;;;23.00;10.00;;;;;;;;;;5055434;28;20104;-40
2021/10/21 08:43:59;;;;;;;18.38;9.98;;;;;;;;;;5055616;28;20068;-40
2021/10/21 08:46:26;;;;;;;12.43;7.68;;;;;;;;;;5055457;28;20021;-40
2021/10/21 08:48:59;;;;;;;17.25;8.07;;;;;;;;;;5054417;28;20025;-41
2021/10/21 08:51:26;;;;;;;9.25;6.93;;;;;;;;;;5055219;28;20028;-41
2021/10/21 08:53:53;;;;;;;9.63;6.85;;;;;;;;;;5053635;28;20033;-41
2021/10/21 08:56:23;;;;;;;10.05;5.40;;;;;;;;;;5055091;28;20047;-40
2021/10/21 08:58:49;;;;;;;15.45;4.93;;;;;;;;;;5055219;28;20031;-40
2021/10/21 09:01:18;;;;;;;9.98;4.35;;;;;;;;;;5055009;28;20021;-40
2021/10/21 09:09:03;;;;;;;15.00;5.65;;;;;;;;;;5055232;28;20091;-40
2021/10/21 09:11:29;;;;;;;8.23;5.25;;;;;;;;;;5055206;28;20104;-40
2021/10/21 09:14:09;;;;;;;12.23;5.38;;;;;;;;;;5055018;28;20033;-40
2021/10/21 09:16:35;;;;;;;9.95;4.85;;;;;;;;;;5054744;28;20028;-40
2021/10/21 09:19:11;;;;;;;7.18;4.60;;;;;;;;;;5053676;28;20107;-40
2021/10/21 09:21:38;;;;;;;12.68;5.43;;;;;;;;;;5054802;28;20017;-41
2021/10/21 09:24:23;;;;;;;9.98;5.32;;;;;;;;;;5053194;28;20484;-41
2021/10/21 09:27:15;;;;;;;8.45;4.32;;;;;;;;;;5054969;28;20061;-40
2021/10/21 09:29:43;;;;;;;13.05;4.72;;;;;;;;;;5053391;28;20048;-41
2021/10/21 09:32:10;;;;;;;9.68;4.68;;;;;;;;;;5054550;28;20036;-41
2021/10/21 09:34:56;;;;;;;13.38;4.45;;;;;;;;;;5054371;28;20039;-41
2021/10/21 09:37:25;;;;;;;13.93;4.97;;;;;;;;;;5054430;28;20021;-41
2021/10/21 09:40:02;;;;;;;6.93;4.25;;;;;;;;;;5054347;28;20025;-41
2021/10/21 09:42:32;;;;;;;9.77;3.70;;;;;;;;;;5054755;28;20392;-41
2021/10/21 09:45:17;;;;;;;8.63;4.47;;;;;;;;;;5054487;28;20107;-42
2021/10/21 09:47:45;;;;;;;8.50;4.45;;;;;;;;;;5054208;28;20385;-43
2021/10/21 09:50:16;;;;;;;7.88;4.18;;;;;;;;;;5054025;28;20021;-42
2021/10/21 09:52:43;;;;;;;6.72;3.80;;;;;;;;;;5054078;28;20033;-42
2021/10/21 09:55:12;;;;;;;8.82;4.47;;;;;;;;;;5054214;28;20444;-42
2021/10/21 09:57:39;;;;;;;7.50;4.40;;;;;;;;;;5054108;28;20025;-41
2021/10/21 10:00:08;;;;;;;11.68;5.15;;;;;;;;;;5054049;28;20378;-41
2021/10/21 10:02:34;;;;;;;5.78;4.63;;;;;;;;;;5054368;28;20025;-41
2021/10/21 10:05:04;;;;;;;6.28;4.32;;;;;;;;;;5053895;28;20056;-42
2021/10/21 10:07:30;;;;;;;6.32;4.13;;;;;;;;;;5053760;28;20028;-42
2021/10/21 10:10:00;;;;;;;7.05;4.55;;;;;;;;;;5053879;28;20021;-41
2021/10/21 10:12:30;;;;;;;13.32;6.22;;;;;;;;;;5053966;28;20028;-42
2021/10/21 10:14:57;;;;;;;8.07;5.07;;;;;;;;;;5053730;28;20481;-41
2021/10/21 10:17:24;;;;;;;9.30;5.40;;;;;;;;;;5053657;28;20056;-41
2021/10/21 10:19:50;;;;;;;11.43;6.25;;;;;;;;;;5053883;28;20037;-41
2021/10/21 10:22:26;;;;;;;15.20;7.45;;;;;;;;;;5053616;28;20066;-41
2021/10/21 10:24:53;;;;;;;16.15;7.20;;;;;;;;;;5053321;28;20515;-41
2021/10/21 10:27:23;;;;;;;16.67;8.35;;;;;;;;;;5053522;28;20036;-41
2021/10/21 10:29:51;;;;;;;11.63;6.32;;;;;;;;;;5053410;28;20048;-42
2021/10/21 10:32:37;;;;;;;16.20;7.13;;;;;;;;;;5053806;28;20021;-41
2021/10/21 10:35:06;;;;;;;9.70;5.35;;;;;;;;;;5053499;28;20055;-41
2021/10/21 10:37:32;;;;;;;13.60;7.57;;;;;;;;;;5053538;28;20036;-41
2021/10/21 10:40:02;;;;;;;12.82;7.03;;;;;;;;;;5053385;28;20096;-41
2021/10/21 10:42:39;;;;;;;13.15;8.38;;;;;;;;;;5053395;28;20033;-41
2021/10/21 10:45:12;;;;;;;26.60;14.90;;;;;;;;;;5053541;28;20031;-41
2021/10/21 10:47:38;;;;;;;15.85;10.52;;;;;;;;;;5053220;28;20504;-47
2021/10/21 10:50:07;;;;;;;20.88;12.75;;;;;;;;;;5053403;28;20025;-41
2021/10/21 10:52:49;;;;;;;19.80;7.85;;;;;;;;;;5053281;28;20032;-41
2021/10/21 10:55:16;;;;;;;9.95;5.32;;;;;;;;;;5051681;28;20099;-40
2021/10/21 10:57:45;;;;;;;8.50;4.70;;;;;;;;;;5053254;28;20021;-41
2021/10/21 11:00:30;;;;;;;9.88;4.20;;;;;;;;;;5053416;28;20040;-41
2021/10/21 11:02:57;;;;;;;14.35;4.60;;;;;;;;;;5053241;28;20421;-41
2021/10/21 11:05:23;;;;;;;5.45;4.43;;;;;;;;;;5053209;28;20068;-41
2021/10/21 11:07:53;;;;;;;13.85;4.50;;;;;;;;;;5052863;28;20017;-42
2021/10/21 11:10:26;;;;;;;9.75;4.53;;;;;;;;;;5053111;28;20112;-41
2021/10/21 11:12:58;;;;;;;6.10;4.53;;;;;;;;;;5056733;28;20032;-41
2021/10/21 11:15:31;;;;;;;4.03;3.40;;;;;;;;;;5057116;28;20025;-40
2021/10/21 11:17:58;;;;;;;6.93;3.97;;;;;;;;;;5057114;28;20025;-40
2021/10/21 11:20:29;;;;;;;5.28;3.70;;;;;;;;;;5057113;28;20083;-40
2021/10/21 11:22:59;;;;;;;11.68;4.03;;;;;;;;;;5056995;28;20025;-40
2021/10/21 11:25:29;;;;;;;5.47;3.95;;;;;;;;;;5056829;28;20129;-40
2021/10/21 11:27:56;;;;;;;4.95;3.80;;;;;;;;;;5056929;28;20063;-41
2021/10/21 11:30:29;;;;;;;9.13;4.68;;;;;;;;;;5056960;28;20024;-40
2021/10/21 11:32:57;;;;;;;6.90;4.20;;;;;;;;;;5056630;28;20032;-42
2021/10/21 11:35:27;;;;;;;4.93;4.03;;;;;;;;;;5057278;28;20125;-40
2021/10/21 11:38:13;;;;;;;12.35;4.30;;;;;;;;;;5056854;28;20469;-40
2021/10/21 11:40:42;;;;;;;11.05;4.55;;;;;;;;;;5056568;28;20031;-40
2021/10/21 11:43:09;;;;;;;7.90;4.18;;;;;;;;;;5056640;28;20079;-41
2021/10/21 11:45:37;;;;;;;8.30;4.50;;;;;;;;;;5056755;28;20090;-41
2021/10/21 11:48:07;;;;;;;8.50;4.75;;;;;;;;;;5056629;28;20020;-40
2021/10/21 11:50:37;;;;;;;11.75;5.00;;;;;;;;;;5056635;28;20372;-40
2021/10/21 11:53:05;;;;;;;10.47;5.50;;;;;;;;;;5056537;28;20087;-40
2021/10/21 11:55:32;;;;;;;7.10;5.10;;;;;;;;;;5056378;28;20281;-40
2021/10/21 11:58:01;;;;;;;6.72;4.80;;;;;;;;;;5056507;28;20037;-41
2021/10/21 12:00:30;;;;;;;10.63;4.28;;;;;;;;;;5056221;28;20492;-47
2021/10/21 12:03:01;;;;;;;4.97;4.47;;;;;;;;;;5056271;28;20025;-48
2021/10/21 12:05:28;;;;;;;6.72;4.75;;;;;;;;;;5056389;28;20028;-44
2021/10/21 12:07:56;;;;;;;11.18;4.80;;;;;;;;;;5056124;28;20027;-41
2021/10/21 12:10:29;;;;;;;12.43;5.03;;;;;;;;;;5056733;28;20423;-40
2021/10/21 12:12:56;;;;;;;7.68;4.93;;;;;;;;;;5055111;28;20354;-41
2021/10/21 12:15:23;;;;;;;10.25;5.70;;;;;;;;;;5055745;28;20029;-40
2021/10/21 12:17:49;;;;;;;10.00;5.07;;;;;;;;;;5055610;28;20354;-40
2021/10/21 12:20:39;;;;;;;9.30;5.93;;;;;;;;;;5055378;28;20554;-40
2021/10/21 12:23:08;;;;;;;;;;;;;;;;;;5052612;28;20028;-41
2021/10/21 12:25:34;;;;;;;108.13;9.52;;;;;;;;;;5054932;28;19925;-40
2021/10/21 12:28:01;;;;;;;8.63;6.32;;;;;;;;;;5055146;28;20115;-40
2021/10/21 12:30:27;;;;;;;13.55;7.57;;;;;;;;;;5055246;28;20025;-40
2021/10/21 12:33:10;;;;;;;10.57;6.60;;;;;;;;;;5055132;28;20029;-40
2021/10/21 12:35:37;;;;;;;18.92;11.75;;;;;;;;;;5054759;28;20025;-41
2021/10/21 12:38:09;;;;;;;27.05;13.15;;;;;;;;;;5055095;28;20047;-40
2021/10/21 12:40:37;;;;;;;12.90;5.07;;;;;;;;;;5055490;28;21207;-40
2021/10/21 12:43:17;;;;;;;14.93;7.80;;;;;;;;;;5053992;28;20017;-41
2021/10/21 12:45:43;;;;;;;9.88;6.05;;;;;;;;;;5052762;28;20056;-40
2021/10/21 12:48:23;;;;;;;13.23;6.20;;;;;;;;;;5054972;28;20484;-41
2021/10/21 12:50:50;;;;;;;23.17;13.87;;;;;;;;;;5053388;28;20420;-41
2021/10/21 12:53:17;;;;;;;22.55;14.77;;;;;;;;;;5054682;28;20116;-41
2021/10/21 12:55:43;;;;;;;17.40;10.60;;;;;;;;;;5054792;28;20044;-42
2021/10/21 12:58:18;;;;;;;16.95;8.40;;;;;;;;;;5054797;28;20499;-45
2021/10/21 13:00:48;;;;;;;18.83;10.30;;;;;;;;;;5052671;28;20013;-43
2021/10/21 13:03:19;;;;;;;32.17;14.23;;;;;;;;;;5054321;28;20107;-40
2021/10/21 13:05:46;;;;;;;28.73;11.83;;;;;;;;;;5054407;28;20017;-43
2021/10/21 13:08:12;;;;;;;33.72;21.65;;;;;;;;;;5054543;28;20028;-43
2021/10/21 13:10:59;;;;;;;60.78;35.75;;;;;;;;;;5054715;28;20029;-42
2021/10/21 13:13:27;;;;;;;20.10;8.32;;;;;;;;;;5054573;28;20057;-43
2021/10/21 13:15:54;;;;;;;19.50;10.82;;;;;;;;;;5054642;28;20025;-42
2021/10/21 13:18:20;;;;;;;64.70;31.58;;;;;;;;;;5054579;28;20032;-41
2021/10/21 13:20:47;;;;;;;78.65;42.28;;;;;;;;;;5054576;28;20524;-41
2021/10/21 13:23:14;;;;;;;19.95;10.32;;;;;;;;;;5054670;28;20108;-42
2021/10/21 13:25:40;;;;;;;22.30;11.18;;;;;;;;;;5054205;28;20088;-42
2021/10/21 13:28:06;;;;;;;25.80;13.85;;;;;;;;;;5054540;28;20032;-45
2021/10/21 13:30:33;;;;;;;18.42;7.65;;;;;;;;;;5054480;28;20493;-44
2021/10/21 13:32:59;;;;;;;71.57;37.42;;;;;;;;;;5054081;28;20021;-42
2021/10/21 13:35:25;;;;;;;78.93;44.83;;;;;;;;;;5054189;28;20520;-42
2021/10/21 13:37:54;;;;;;;24.25;12.60;;;;;;;;;;5054429;28;20028;-42
2021/10/21 13:40:21;;;;;;;33.50;18.17;;;;;;;;;;5054297;28;20124;-42
2021/10/21 13:42:47;;;;;;;60.03;36.72;;;;;;;;;;5054222;28;20083;-42
2021/10/21 13:45:13;;;;;;;85.10;52.13;;;;;;;;;;5054168;28;20385;-41
2021/10/21 13:47:40;;;;;;;40.00;21.58;;;;;;;;;;5054004;28;20028;-41
2021/10/21 13:50:06;;;;;;;76.03;43.42;;;;;;;;;;5054146;28;20052;-41
2021/10/21 13:52:32;;;;;;;41.83;22.83;;;;;;;;;;5053919;28;20021;-43
2021/10/21 13:54:58;;;;;;;79.13;43.88;;;;;;;;;;5053834;28;20082;-42
2021/10/21 13:57:29;;;;;;;20.27;13.48;;;;;;;;;;5053887;28;20116;-39
2021/10/21 13:59:55;;;;;;;37.08;23.50;;;;;;;;;;5053900;28;20032;-40
2021/10/21 14:02:21;;;;;;;87.93;52.10;;;;;;;;;;5053741;28;20370;-40
2021/10/21 14:04:50;;;;;;;93.20;58.72;;;;;;;;;;5053768;28;20025;-42
2021/10/21 14:07:26;;;;;;;73.28;41.13;;;;;;;;;;5053768;28;20055;-41
2021/10/21 14:09:55;;;;;;;53.60;30.60;;;;;;;;;;5053523;28;20032;-40
2021/10/21 14:12:22;;;;;;;72.55;42.13;;;;;;;;;;5053692;28;20124;-41
2021/10/21 14:14:48;;;;;;;69.13;40.67;;;;;;;;;;5053362;28;20099;-40
2021/10/21 14:17:14;;;;;;;84.32;48.00;;;;;;;;;;5053687;28;20855;-41
2021/10/21 14:19:41;;;;;;;166.40;99.25;;;;;;;;;;5053540;28;20104;-41
2021/10/21 14:22:08;;;;;;;39.25;22.73;;;;;;;;;;5053510;28;20027;-41
2021/10/21 14:24:35;;;;;;;126.97;75.85;;;;;;;;;;5053186;28;20119;-40
2021/10/21 14:27:02;;;;;;;32.55;19.92;;;;;;;;;;5053533;28;20044;-40
2021/10/21 14:29:28;;;;;;;26.52;13.35;;;;;;;;;;5053592;28;20392;-43
2021/10/21 14:31:54;;;;;;;18.33;8.73;;;;;;;;;;5053399;28;20021;-41